sensor_id;sensor_type;location;lat;lon;timestamp;P1;durP1;ratioP1;P2;durP2;ratioP2
76290;SDS011;65100;46.884;17.410;2024-03-08T00:00:15;51.03;;;18.93;;
76290;SDS011;65100;46.884;17.410;2024-03-08T00:02:46;57.13;;;20.70;;
76290;SDS011;65100;46.884;17.410;2024-03-08T00:05:12;56.95;;;21.27;;
76290;SDS011;65100;46.884;17.410;2024-03-08T00:07:39;55.65;;;20.83;;
76290;SDS011;65100;46.884;17.410;2024-03-08T00:10:07;56.20;;;20.90;;
76290;SDS011;65100;46.884;17.410;2024-03-08T00:12:37;55.47;;;19.90;;
76290;SDS011;65100;46.884;17.410;2024-03-08T00:15:03;55.58;;;20.55;;
76290;SDS011;65100;46.884;17.410;2024-03-08T00:17:29;55.92;;;20.95;;
76290;SDS011;65100;46.884;17.410;2024-03-08T00:19:54;55.60;;;20.90;;
76290;SDS011;65100;46.884;17.410;2024-03-08T00:22:20;52.47;;;20.48;;
76290;SDS011;65100;46.884;17.410;2024-03-08T00:24:47;54.87;;;20.50;;
76290;SDS011;65100;46.884;17.410;2024-03-08T00:27:14;56.80;;;20.40;;
76290;SDS011;65100;46.884;17.410;2024-03-08T00:29:40;55.65;;;20.40;;
76290;SDS011;65100;46.884;17.410;2024-03-08T00:32:06;54.90;;;21.00;;
76290;SDS011;65100;46.884;17.410;2024-03-08T00:34:34;59.17;;;20.92;;
76290;SDS011;65100;46.884;17.410;2024-03-08T00:37:02;53.28;;;20.33;;
76290;SDS011;65100;46.884;17.410;2024-03-08T00:39:28;55.10;;;20.58;;
76290;SDS011;65100;46.884;17.410;2024-03-08T00:41:53;55.40;;;19.43;;
76290;SDS011;65100;46.884;17.410;2024-03-08T00:44:19;54.37;;;20.83;;
76290;SDS011;65100;46.884;17.410;2024-03-08T00:46:44;57.50;;;20.30;;
76290;SDS011;65100;46.884;17.410;2024-03-08T00:49:10;58.47;;;20.87;;
76290;SDS011;65100;46.884;17.410;2024-03-08T00:51:37;58.50;;;20.67;;
76290;SDS011;65100;46.884;17.410;2024-03-08T00:54:03;58.63;;;21.48;;
76290;SDS011;65100;46.884;17.410;2024-03-08T00:56:28;61.80;;;21.70;;
76290;SDS011;65100;46.884;17.410;2024-03-08T00:58:54;61.33;;;20.90;;
76290;SDS011;65100;46.884;17.410;2024-03-08T01:01:19;63.05;;;21.83;;
76290;SDS011;65100;46.884;17.410;2024-03-08T01:03:45;54.83;;;20.30;;
76290;SDS011;65100;46.884;17.410;2024-03-08T01:06:11;59.65;;;20.80;;
76290;SDS011;65100;46.884;17.410;2024-03-08T01:08:36;59.90;;;20.67;;
76290;SDS011;65100;46.884;17.410;2024-03-08T01:11:04;62.28;;;22.35;;
76290;SDS011;65100;46.884;17.410;2024-03-08T01:13:30;62.63;;;21.48;;
76290;SDS011;65100;46.884;17.410;2024-03-08T01:15:56;61.25;;;21.52;;
76290;SDS011;65100;46.884;17.410;2024-03-08T01:18:21;62.23;;;21.13;;
76290;SDS011;65100;46.884;17.410;2024-03-08T01:20:47;62.27;;;21.97;;
76290;SDS011;65100;46.884;17.410;2024-03-08T01:23:12;63.40;;;21.35;;
76290;SDS011;65100;46.884;17.410;2024-03-08T01:25:38;57.20;;;21.05;;
76290;SDS011;65100;46.884;17.410;2024-03-08T01:28:04;65.73;;;22.50;;
76290;SDS011;65100;46.884;17.410;2024-03-08T01:30:30;61.53;;;21.92;;
76290;SDS011;65100;46.884;17.410;2024-03-08T01:32:58;66.87;;;22.57;;
76290;SDS011;65100;46.884;17.410;2024-03-08T01:35:23;62.72;;;21.75;;
76290;SDS011;65100;46.884;17.410;2024-03-08T01:37:49;67.03;;;22.73;;
76290;SDS011;65100;46.884;17.410;2024-03-08T01:40:15;63.90;;;21.90;;
76290;SDS011;65100;46.884;17.410;2024-03-08T01:42:41;63.70;;;22.42;;
76290;SDS011;65100;46.884;17.410;2024-03-08T01:45:07;61.20;;;21.87;;
76290;SDS011;65100;46.884;17.410;2024-03-08T01:47:34;61.03;;;21.50;;
76290;SDS011;65100;46.884;17.410;2024-03-08T01:50:00;59.30;;;21.40;;
76290;SDS011;65100;46.884;17.410;2024-03-08T01:52:31;62.47;;;22.10;;
76290;SDS011;65100;46.884;17.410;2024-03-08T01:55:01;64.38;;;22.05;;
76290;SDS011;65100;46.884;17.410;2024-03-08T01:57:28;62.40;;;22.37;;
76290;SDS011;65100;46.884;17.410;2024-03-08T01:59:54;63.50;;;21.75;;
76290;SDS011;65100;46.884;17.410;2024-03-08T02:02:21;61.53;;;20.85;;
76290;SDS011;65100;46.884;17.410;2024-03-08T02:04:47;55.75;;;21.17;;
76290;SDS011;65100;46.884;17.410;2024-03-08T02:07:12;65.40;;;22.30;;
76290;SDS011;65100;46.884;17.410;2024-03-08T02:09:38;56.22;;;21.45;;
76290;SDS011;65100;46.884;17.410;2024-03-08T02:12:04;61.03;;;21.60;;
76290;SDS011;65100;46.884;17.410;2024-03-08T02:14:30;62.80;;;21.38;;
76290;SDS011;65100;46.884;17.410;2024-03-08T02:16:59;64.53;;;21.92;;
76290;SDS011;65100;46.884;17.410;2024-03-08T02:19:25;61.67;;;21.80;;
76290;SDS011;65100;46.884;17.410;2024-03-08T02:21:51;60.10;;;22.27;;
76290;SDS011;65100;46.884;17.410;2024-03-08T02:24:16;63.27;;;22.13;;
76290;SDS011;65100;46.884;17.410;2024-03-08T02:26:42;62.07;;;21.13;;
76290;SDS011;65100;46.884;17.410;2024-03-08T02:29:08;64.05;;;23.13;;
76290;SDS011;65100;46.884;17.410;2024-03-08T02:31:34;63.88;;;21.10;;
76290;SDS011;65100;46.884;17.410;2024-03-08T02:34:00;63.00;;;21.70;;
76290;SDS011;65100;46.884;17.410;2024-03-08T02:36:25;60.03;;;21.87;;
76290;SDS011;65100;46.884;17.410;2024-03-08T02:38:51;61.10;;;21.77;;
76290;SDS011;65100;46.884;17.410;2024-03-08T02:41:16;61.73;;;21.30;;
76290;SDS011;65100;46.884;17.410;2024-03-08T02:43:42;65.13;;;22.75;;
76290;SDS011;65100;46.884;17.410;2024-03-08T02:46:09;64.63;;;22.38;;
76290;SDS011;65100;46.884;17.410;2024-03-08T02:48:35;60.70;;;22.43;;
76290;SDS011;65100;46.884;17.410;2024-03-08T02:51:00;59.47;;;21.00;;
76290;SDS011;65100;46.884;17.410;2024-03-08T02:53:27;63.00;;;21.73;;
76290;SDS011;65100;46.884;17.410;2024-03-08T02:55:52;63.72;;;22.33;;
76290;SDS011;65100;46.884;17.410;2024-03-08T02:58:18;66.10;;;22.93;;
76290;SDS011;65100;46.884;17.410;2024-03-08T03:00:43;59.53;;;20.97;;
76290;SDS011;65100;46.884;17.410;2024-03-08T03:03:09;60.38;;;21.25;;
76290;SDS011;65100;46.884;17.410;2024-03-08T03:05:35;60.20;;;21.00;;
76290;SDS011;65100;46.884;17.410;2024-03-08T03:08:00;64.82;;;21.40;;
76290;SDS011;65100;46.884;17.410;2024-03-08T03:10:28;67.30;;;22.48;;
76290;SDS011;65100;46.884;17.410;2024-03-08T03:12:54;63.83;;;21.30;;
76290;SDS011;65100;46.884;17.410;2024-03-08T03:15:19;61.13;;;20.67;;
76290;SDS011;65100;46.884;17.410;2024-03-08T03:17:49;65.90;;;21.87;;
76290;SDS011;65100;46.884;17.410;2024-03-08T03:20:18;63.92;;;22.10;;
76290;SDS011;65100;46.884;17.410;2024-03-08T03:23:07;63.00;;;21.38;;
76290;SDS011;65100;46.884;17.410;2024-03-08T03:25:34;60.28;;;20.88;;
76290;SDS011;65100;46.884;17.410;2024-03-08T03:28:00;62.25;;;22.00;;
76290;SDS011;65100;46.884;17.410;2024-03-08T03:30:26;59.80;;;22.07;;
76290;SDS011;65100;46.884;17.410;2024-03-08T03:32:55;65.03;;;23.35;;
76290;SDS011;65100;46.884;17.410;2024-03-08T03:35:24;59.05;;;22.02;;
76290;SDS011;65100;46.884;17.410;2024-03-08T03:37:49;65.57;;;23.63;;
76290;SDS011;65100;46.884;17.410;2024-03-08T03:40:33;64.65;;;22.98;;
76290;SDS011;65100;46.884;17.410;2024-03-08T03:42:59;63.53;;;22.17;;
76290;SDS011;65100;46.884;17.410;2024-03-08T03:45:25;66.10;;;22.83;;
76290;SDS011;65100;46.884;17.410;2024-03-08T03:47:51;60.27;;;21.47;;
76290;SDS011;65100;46.884;17.410;2024-03-08T03:50:19;59.65;;;21.75;;
76290;SDS011;65100;46.884;17.410;2024-03-08T03:52:48;63.60;;;22.23;;
76290;SDS011;65100;46.884;17.410;2024-03-08T03:55:14;58.70;;;21.55;;
76290;SDS011;65100;46.884;17.410;2024-03-08T03:57:40;61.73;;;22.53;;
76290;SDS011;65100;46.884;17.410;2024-03-08T04:00:06;61.47;;;21.00;;
76290;SDS011;65100;46.884;17.410;2024-03-08T04:02:36;63.17;;;21.88;;
76290;SDS011;65100;46.884;17.410;2024-03-08T04:05:05;61.42;;;21.70;;
76290;SDS011;65100;46.884;17.410;2024-03-08T04:07:32;60.07;;;21.17;;
76290;SDS011;65100;46.884;17.410;2024-03-08T04:09:57;64.18;;;21.08;;
76290;SDS011;65100;46.884;17.410;2024-03-08T04:12:23;62.87;;;22.40;;
76290;SDS011;65100;46.884;17.410;2024-03-08T04:17:55;58.50;;;20.80;;
76290;SDS011;65100;46.884;17.410;2024-03-08T04:20:22;62.22;;;21.88;;
76290;SDS011;65100;46.884;17.410;2024-03-08T04:22:47;65.10;;;21.07;;
76290;SDS011;65100;46.884;17.410;2024-03-08T04:25:14;69.18;;;22.58;;
76290;SDS011;65100;46.884;17.410;2024-03-08T04:27:40;65.37;;;22.27;;
76290;SDS011;65100;46.884;17.410;2024-03-08T04:30:06;62.40;;;20.90;;
76290;SDS011;65100;46.884;17.410;2024-03-08T04:32:34;62.15;;;21.33;;
76290;SDS011;65100;46.884;17.410;2024-03-08T04:35:00;61.60;;;20.97;;
76290;SDS011;65100;46.884;17.410;2024-03-08T04:37:26;61.47;;;22.45;;
76290;SDS011;65100;46.884;17.410;2024-03-08T04:39:54;62.88;;;22.15;;
76290;SDS011;65100;46.884;17.410;2024-03-08T04:42:20;62.00;;;22.17;;
76290;SDS011;65100;46.884;17.410;2024-03-08T04:44:45;62.00;;;22.35;;
76290;SDS011;65100;46.884;17.410;2024-03-08T04:47:11;61.20;;;21.50;;
76290;SDS011;65100;46.884;17.410;2024-03-08T04:49:37;57.60;;;21.63;;
76290;SDS011;65100;46.884;17.410;2024-03-08T04:52:02;62.22;;;20.38;;
76290;SDS011;65100;46.884;17.410;2024-03-08T04:54:28;62.00;;;21.93;;
76290;SDS011;65100;46.884;17.410;2024-03-08T04:56:54;66.45;;;22.08;;
76290;SDS011;65100;46.884;17.410;2024-03-08T04:59:20;61.65;;;22.00;;
76290;SDS011;65100;46.884;17.410;2024-03-08T05:01:45;63.73;;;22.57;;
76290;SDS011;65100;46.884;17.410;2024-03-08T05:04:12;55.00;;;19.58;;
76290;SDS011;65100;46.884;17.410;2024-03-08T05:06:40;55.95;;;19.83;;
76290;SDS011;65100;46.884;17.410;2024-03-08T05:09:06;53.27;;;19.83;;
76290;SDS011;65100;46.884;17.410;2024-03-08T05:11:41;54.08;;;18.70;;
76290;SDS011;65100;46.884;17.410;2024-03-08T05:14:08;49.97;;;18.85;;
76290;SDS011;65100;46.884;17.410;2024-03-08T05:16:34;58.47;;;19.63;;
76290;SDS011;65100;46.884;17.410;2024-03-08T05:19:01;51.65;;;17.80;;
76290;SDS011;65100;46.884;17.410;2024-03-08T05:21:26;52.55;;;18.75;;
76290;SDS011;65100;46.884;17.410;2024-03-08T05:23:53;55.90;;;18.40;;
76290;SDS011;65100;46.884;17.410;2024-03-08T05:26:19;54.77;;;18.43;;
76290;SDS011;65100;46.884;17.410;2024-03-08T05:28:45;50.90;;;18.52;;
76290;SDS011;65100;46.884;17.410;2024-03-08T05:31:17;53.83;;;17.92;;
76290;SDS011;65100;46.884;17.410;2024-03-08T05:33:49;49.97;;;17.15;;
76290;SDS011;65100;46.884;17.410;2024-03-08T05:36:15;51.37;;;18.43;;
76290;SDS011;65100;46.884;17.410;2024-03-08T05:38:43;51.60;;;17.90;;
76290;SDS011;65100;46.884;17.410;2024-03-08T05:41:09;52.00;;;17.43;;
76290;SDS011;65100;46.884;17.410;2024-03-08T05:43:36;49.58;;;16.17;;
76290;SDS011;65100;46.884;17.410;2024-03-08T05:46:02;48.10;;;16.77;;
76290;SDS011;65100;46.884;17.410;2024-03-08T05:48:29;46.90;;;16.77;;
76290;SDS011;65100;46.884;17.410;2024-03-08T05:50:57;43.23;;;15.50;;
76290;SDS011;65100;46.884;17.410;2024-03-08T05:53:23;45.15;;;16.52;;
76290;SDS011;65100;46.884;17.410;2024-03-08T05:55:48;45.33;;;16.57;;
76290;SDS011;65100;46.884;17.410;2024-03-08T05:58:14;46.03;;;16.85;;
76290;SDS011;65100;46.884;17.410;2024-03-08T06:00:40;48.58;;;17.83;;
76290;SDS011;65100;46.884;17.410;2024-03-08T06:03:05;44.53;;;16.30;;
76290;SDS011;65100;46.884;17.410;2024-03-08T06:05:31;51.20;;;17.67;;
76290;SDS011;65100;46.884;17.410;2024-03-08T06:07:56;51.07;;;17.77;;
76290;SDS011;65100;46.884;17.410;2024-03-08T06:10:22;53.73;;;18.13;;
76290;SDS011;65100;46.884;17.410;2024-03-08T06:12:47;52.10;;;18.20;;
76290;SDS011;65100;46.884;17.410;2024-03-08T06:15:13;52.00;;;19.42;;
76290;SDS011;65100;46.884;17.410;2024-03-08T06:17:40;50.97;;;18.35;;
76290;SDS011;65100;46.884;17.410;2024-03-08T06:20:06;49.47;;;17.47;;
76290;SDS011;65100;46.884;17.410;2024-03-08T06:22:38;48.08;;;19.17;;
76290;SDS011;65100;46.884;17.410;2024-03-08T06:25:07;46.47;;;17.63;;
76290;SDS011;65100;46.884;17.410;2024-03-08T06:27:33;49.67;;;17.40;;
76290;SDS011;65100;46.884;17.410;2024-03-08T06:30:02;46.67;;;17.67;;
76290;SDS011;65100;46.884;17.410;2024-03-08T06:32:30;48.45;;;17.70;;
76290;SDS011;65100;46.884;17.410;2024-03-08T06:34:56;44.00;;;16.83;;
76290;SDS011;65100;46.884;17.410;2024-03-08T06:37:21;46.40;;;18.13;;
76290;SDS011;65100;46.884;17.410;2024-03-08T06:39:50;45.70;;;16.60;;
76290;SDS011;65100;46.884;17.410;2024-03-08T06:42:20;44.03;;;17.33;;
76290;SDS011;65100;46.884;17.410;2024-03-08T06:44:45;41.65;;;16.80;;
76290;SDS011;65100;46.884;17.410;2024-03-08T06:47:17;43.60;;;16.13;;
76290;SDS011;65100;46.884;17.410;2024-03-08T06:49:43;42.95;;;15.93;;
76290;SDS011;65100;46.884;17.410;2024-03-08T06:52:09;48.13;;;17.92;;
76290;SDS011;65100;46.884;17.410;2024-03-08T06:54:35;43.42;;;16.40;;
76290;SDS011;65100;46.884;17.410;2024-03-08T06:57:02;43.17;;;17.07;;
76290;SDS011;65100;46.884;17.410;2024-03-08T06:59:30;42.75;;;15.85;;
76290;SDS011;65100;46.884;17.410;2024-03-08T07:01:56;42.90;;;16.60;;
76290;SDS011;65100;46.884;17.410;2024-03-08T07:04:22;43.20;;;15.63;;
76290;SDS011;65100;46.884;17.410;2024-03-08T07:06:51;45.67;;;16.63;;
76290;SDS011;65100;46.884;17.410;2024-03-08T07:09:17;48.22;;;17.10;;
76290;SDS011;65100;46.884;17.410;2024-03-08T07:11:42;50.13;;;17.17;;
76290;SDS011;65100;46.884;17.410;2024-03-08T07:14:08;43.45;;;16.48;;
76290;SDS011;65100;46.884;17.410;2024-03-08T07:16:34;44.03;;;15.13;;
76290;SDS011;65100;46.884;17.410;2024-03-08T07:19:03;41.67;;;14.07;;
76290;SDS011;65100;46.884;17.410;2024-03-08T07:21:30;39.88;;;14.18;;
76290;SDS011;65100;46.884;17.410;2024-03-08T07:23:56;36.33;;;13.40;;
76290;SDS011;65100;46.884;17.410;2024-03-08T07:26:24;39.78;;;14.05;;
76290;SDS011;65100;46.884;17.410;2024-03-08T07:28:49;39.07;;;14.50;;
76290;SDS011;65100;46.884;17.410;2024-03-08T07:31:15;37.47;;;14.40;;
76290;SDS011;65100;46.884;17.410;2024-03-08T07:33:56;39.03;;;13.40;;
76290;SDS011;65100;46.884;17.410;2024-03-08T07:36:24;37.57;;;13.73;;
76290;SDS011;65100;46.884;17.410;2024-03-08T07:38:49;37.83;;;13.38;;
76290;SDS011;65100;46.884;17.410;2024-03-08T07:41:15;37.20;;;12.90;;
76290;SDS011;65100;46.884;17.410;2024-03-08T07:43:41;38.63;;;13.85;;
76290;SDS011;65100;46.884;17.410;2024-03-08T07:46:07;36.92;;;13.95;;
76290;SDS011;65100;46.884;17.410;2024-03-08T07:48:35;37.70;;;13.40;;
76290;SDS011;65100;46.884;17.410;2024-03-08T07:51:02;38.80;;;14.13;;
76290;SDS011;65100;46.884;17.410;2024-03-08T07:53:30;38.67;;;14.25;;
76290;SDS011;65100;46.884;17.410;2024-03-08T07:55:56;37.13;;;14.07;;
76290;SDS011;65100;46.884;17.410;2024-03-08T07:58:22;36.87;;;14.17;;
76290;SDS011;65100;46.884;17.410;2024-03-08T08:00:48;34.45;;;12.93;;
76290;SDS011;65100;46.884;17.410;2024-03-08T08:03:14;37.60;;;13.75;;
76290;SDS011;65100;46.884;17.410;2024-03-08T08:05:41;34.47;;;12.80;;
76290;SDS011;65100;46.884;17.410;2024-03-08T08:08:07;34.90;;;13.40;;
76290;SDS011;65100;46.884;17.410;2024-03-08T08:10:35;36.40;;;13.80;;
76290;SDS011;65100;46.884;17.410;2024-03-08T08:13:01;28.25;;;11.45;;
76290;SDS011;65100;46.884;17.410;2024-03-08T08:15:29;33.30;;;13.00;;
76290;SDS011;65100;46.884;17.410;2024-03-08T08:17:55;32.80;;;12.23;;
76290;SDS011;65100;46.884;17.410;2024-03-08T08:20:20;34.53;;;13.30;;
76290;SDS011;65100;46.884;17.410;2024-03-08T08:22:47;31.48;;;12.68;;
76290;SDS011;65100;46.884;17.410;2024-03-08T08:25:13;32.03;;;12.27;;
76290;SDS011;65100;46.884;17.410;2024-03-08T08:27:40;33.00;;;12.32;;
76290;SDS011;65100;46.884;17.410;2024-03-08T08:30:07;31.13;;;12.03;;
76290;SDS011;65100;46.884;17.410;2024-03-08T08:32:37;31.30;;;12.57;;
76290;SDS011;65100;46.884;17.410;2024-03-08T08:35:04;29.63;;;11.95;;
76290;SDS011;65100;46.884;17.410;2024-03-08T08:37:31;31.67;;;12.45;;
76290;SDS011;65100;46.884;17.410;2024-03-08T08:39:57;31.73;;;12.35;;
76290;SDS011;65100;46.884;17.410;2024-03-08T08:42:23;31.60;;;12.47;;
76290;SDS011;65100;46.884;17.410;2024-03-08T08:44:49;32.67;;;12.05;;
76290;SDS011;65100;46.884;17.410;2024-03-08T08:47:16;29.75;;;12.45;;
76290;SDS011;65100;46.884;17.410;2024-03-08T08:49:44;32.85;;;12.40;;
76290;SDS011;65100;46.884;17.410;2024-03-08T08:52:12;33.42;;;12.48;;
76290;SDS011;65100;46.884;17.410;2024-03-08T08:54:38;28.70;;;11.73;;
76290;SDS011;65100;46.884;17.410;2024-03-08T08:57:04;33.53;;;13.30;;
76290;SDS011;65100;46.884;17.410;2024-03-08T08:59:33;30.87;;;11.90;;
76290;SDS011;65100;46.884;17.410;2024-03-08T09:02:01;30.13;;;11.50;;
76290;SDS011;65100;46.884;17.410;2024-03-08T09:04:29;32.90;;;13.52;;
76290;SDS011;65100;46.884;17.410;2024-03-08T09:06:56;32.72;;;13.07;;
76290;SDS011;65100;46.884;17.410;2024-03-08T09:09:22;33.93;;;12.60;;
76290;SDS011;65100;46.884;17.410;2024-03-08T09:11:48;29.70;;;11.57;;
76290;SDS011;65100;46.884;17.410;2024-03-08T09:14:14;31.83;;;12.82;;
76290;SDS011;65100;46.884;17.410;2024-03-08T09:16:40;33.67;;;12.55;;
76290;SDS011;65100;46.884;17.410;2024-03-08T09:19:06;34.53;;;12.93;;
76290;SDS011;65100;46.884;17.410;2024-03-08T09:21:36;34.17;;;13.88;;
76290;SDS011;65100;46.884;17.410;2024-03-08T09:24:02;34.75;;;13.75;;
76290;SDS011;65100;46.884;17.410;2024-03-08T09:26:27;32.53;;;13.37;;
76290;SDS011;65100;46.884;17.410;2024-03-08T09:28:53;33.10;;;12.87;;
76290;SDS011;65100;46.884;17.410;2024-03-08T09:31:21;33.47;;;12.93;;
76290;SDS011;65100;46.884;17.410;2024-03-08T09:33:47;32.00;;;12.20;;
76290;SDS011;65100;46.884;17.410;2024-03-08T09:36:13;29.67;;;11.27;;
76290;SDS011;65100;46.884;17.410;2024-03-08T09:38:39;33.27;;;12.97;;
76290;SDS011;65100;46.884;17.410;2024-03-08T09:41:05;31.85;;;12.73;;
76290;SDS011;65100;46.884;17.410;2024-03-08T09:43:31;31.75;;;13.52;;
76290;SDS011;65100;46.884;17.410;2024-03-08T09:45:57;35.30;;;13.07;;
76290;SDS011;65100;46.884;17.410;2024-03-08T09:48:23;33.87;;;12.23;;
76290;SDS011;65100;46.884;17.410;2024-03-08T09:50:49;32.15;;;12.57;;
76290;SDS011;65100;46.884;17.410;2024-03-08T09:53:14;32.50;;;12.17;;
76290;SDS011;65100;46.884;17.410;2024-03-08T09:55:41;29.58;;;12.63;;
76290;SDS011;65100;46.884;17.410;2024-03-08T09:58:13;30.05;;;12.77;;
76290;SDS011;65100;46.884;17.410;2024-03-08T10:00:46;29.42;;;11.52;;
76290;SDS011;65100;46.884;17.410;2024-03-08T10:03:12;30.90;;;12.40;;
76290;SDS011;65100;46.884;17.410;2024-03-08T10:05:39;31.35;;;12.25;;
76290;SDS011;65100;46.884;17.410;2024-03-08T10:08:06;28.92;;;12.68;;
76290;SDS011;65100;46.884;17.410;2024-03-08T10:10:33;30.48;;;12.68;;
76290;SDS011;65100;46.884;17.410;2024-03-08T10:12:59;28.95;;;12.18;;
76290;SDS011;65100;46.884;17.410;2024-03-08T10:15:27;30.87;;;12.50;;
76290;SDS011;65100;46.884;17.410;2024-03-08T10:17:55;27.65;;;11.70;;
76290;SDS011;65100;46.884;17.410;2024-03-08T10:20:21;31.30;;;13.52;;
76290;SDS011;65100;46.884;17.410;2024-03-08T10:22:49;28.50;;;12.00;;
76290;SDS011;65100;46.884;17.410;2024-03-08T10:25:14;29.00;;;12.93;;
76290;SDS011;65100;46.884;17.410;2024-03-08T10:27:43;27.35;;;12.05;;
76290;SDS011;65100;46.884;17.410;2024-03-08T10:30:17;26.60;;;11.40;;
76290;SDS011;65100;46.884;17.410;2024-03-08T10:32:45;25.77;;;11.67;;
76290;SDS011;65100;46.884;17.410;2024-03-08T10:35:11;30.67;;;13.50;;
76290;SDS011;65100;46.884;17.410;2024-03-08T10:37:45;40.85;;;17.25;;
76290;SDS011;65100;46.884;17.410;2024-03-08T10:40:20;43.97;;;18.75;;
76290;SDS011;65100;46.884;17.410;2024-03-08T10:45:40;31.67;;;14.83;;
76290;SDS011;65100;46.884;17.410;2024-03-08T10:51:02;25.48;;;11.38;;
76290;SDS011;65100;46.884;17.410;2024-03-08T10:53:28;28.52;;;12.38;;
76290;SDS011;65100;46.884;17.410;2024-03-08T10:55:56;31.20;;;13.57;;
76290;SDS011;65100;46.884;17.410;2024-03-08T10:58:26;29.87;;;13.33;;
76290;SDS011;65100;46.884;17.410;2024-03-08T11:00:53;25.75;;;10.80;;
76290;SDS011;65100;46.884;17.410;2024-03-08T11:08:45;29.13;;;12.07;;
76290;SDS011;65100;46.884;17.410;2024-03-08T11:11:31;25.30;;;11.33;;
76290;SDS011;65100;46.884;17.410;2024-03-08T11:13:59;26.35;;;11.63;;
76290;SDS011;65100;46.884;17.410;2024-03-08T11:21:29;27.35;;;11.02;;
76290;SDS011;65100;46.884;17.410;2024-03-08T11:24:05;23.10;;;9.63;;
76290;SDS011;65100;46.884;17.410;2024-03-08T11:26:33;23.42;;;9.60;;
76290;SDS011;65100;46.884;17.410;2024-03-08T11:31:52;23.02;;;9.85;;
76290;SDS011;65100;46.884;17.410;2024-03-08T11:34:19;23.57;;;10.70;;
76290;SDS011;65100;46.884;17.410;2024-03-08T11:36:47;23.50;;;9.93;;
76290;SDS011;65100;46.884;17.410;2024-03-08T11:39:13;22.38;;;9.45;;
76290;SDS011;65100;46.884;17.410;2024-03-08T11:41:40;20.02;;;8.60;;
76290;SDS011;65100;46.884;17.410;2024-03-08T11:44:07;19.40;;;8.33;;
76290;SDS011;65100;46.884;17.410;2024-03-08T11:46:34;20.63;;;9.20;;
76290;SDS011;65100;46.884;17.410;2024-03-08T11:49:00;23.77;;;10.45;;
76290;SDS011;65100;46.884;17.410;2024-03-08T11:51:26;23.97;;;10.17;;
76290;SDS011;65100;46.884;17.410;2024-03-08T11:53:52;22.65;;;10.02;;
76290;SDS011;65100;46.884;17.410;2024-03-08T11:56:18;23.35;;;10.25;;
76290;SDS011;65100;46.884;17.410;2024-03-08T11:58:53;24.17;;;10.75;;
76290;SDS011;65100;46.884;17.410;2024-03-08T12:01:22;24.70;;;10.83;;
76290;SDS011;65100;46.884;17.410;2024-03-08T12:03:55;25.42;;;10.82;;
76290;SDS011;65100;46.884;17.410;2024-03-08T12:06:25;23.20;;;10.23;;
76290;SDS011;65100;46.884;17.410;2024-03-08T12:08:52;25.25;;;10.98;;
76290;SDS011;65100;46.884;17.410;2024-03-08T12:11:18;23.58;;;10.68;;
76290;SDS011;65100;46.884;17.410;2024-03-08T12:13:48;24.30;;;10.33;;
76290;SDS011;65100;46.884;17.410;2024-03-08T12:16:15;23.67;;;10.70;;
76290;SDS011;65100;46.884;17.410;2024-03-08T12:18:43;22.80;;;10.63;;
76290;SDS011;65100;46.884;17.410;2024-03-08T12:21:10;24.98;;;11.23;;
76290;SDS011;65100;46.884;17.410;2024-03-08T12:23:38;24.70;;;11.02;;
76290;SDS011;65100;46.884;17.410;2024-03-08T12:26:14;27.23;;;11.30;;
76290;SDS011;65100;46.884;17.410;2024-03-08T12:28:48;22.48;;;10.20;;
76290;SDS011;65100;46.884;17.410;2024-03-08T12:31:14;23.30;;;10.67;;
76290;SDS011;65100;46.884;17.410;2024-03-08T12:33:55;23.77;;;10.30;;
76290;SDS011;65100;46.884;17.410;2024-03-08T12:36:24;23.05;;;9.77;;
76290;SDS011;65100;46.884;17.410;2024-03-08T12:38:50;24.23;;;10.10;;
76290;SDS011;65100;46.884;17.410;2024-03-08T12:41:16;24.55;;;10.52;;
76290;SDS011;65100;46.884;17.410;2024-03-08T12:43:44;24.97;;;10.73;;
76290;SDS011;65100;46.884;17.410;2024-03-08T12:48:42;24.10;;;11.13;;
76290;SDS011;65100;46.884;17.410;2024-03-08T12:51:12;24.52;;;10.65;;
76290;SDS011;65100;46.884;17.410;2024-03-08T12:53:38;23.23;;;10.57;;
76290;SDS011;65100;46.884;17.410;2024-03-08T12:56:06;25.35;;;11.10;;
76290;SDS011;65100;46.884;17.410;2024-03-08T12:58:34;22.23;;;10.30;;
76290;SDS011;65100;46.884;17.410;2024-03-08T13:01:01;25.33;;;10.75;;
76290;SDS011;65100;46.884;17.410;2024-03-08T13:03:29;24.52;;;10.57;;
76290;SDS011;65100;46.884;17.410;2024-03-08T13:05:56;25.93;;;10.83;;
76290;SDS011;65100;46.884;17.410;2024-03-08T13:08:22;26.67;;;11.60;;
76290;SDS011;65100;46.884;17.410;2024-03-08T13:10:50;24.75;;;10.70;;
76290;SDS011;65100;46.884;17.410;2024-03-08T13:13:19;25.98;;;11.00;;
76290;SDS011;65100;46.884;17.410;2024-03-08T13:15:44;26.33;;;11.20;;
76290;SDS011;65100;46.884;17.410;2024-03-08T13:18:10;23.23;;;10.55;;
76290;SDS011;65100;46.884;17.410;2024-03-08T13:20:36;23.90;;;11.00;;
76290;SDS011;65100;46.884;17.410;2024-03-08T13:23:03;23.73;;;10.23;;
76290;SDS011;65100;46.884;17.410;2024-03-08T13:25:30;25.90;;;11.50;;
76290;SDS011;65100;46.884;17.410;2024-03-08T13:27:56;32.83;;;14.00;;
76290;SDS011;65100;46.884;17.410;2024-03-08T13:30:24;30.27;;;14.07;;
76290;SDS011;65100;46.884;17.410;2024-03-08T13:32:54;28.38;;;13.05;;
76290;SDS011;65100;46.884;17.410;2024-03-08T13:35:20;38.88;;;15.80;;
76290;SDS011;65100;46.884;17.410;2024-03-08T13:37:50;87.53;;;29.67;;
76290;SDS011;65100;46.884;17.410;2024-03-08T13:40:16;90.32;;;32.35;;
76290;SDS011;65100;46.884;17.410;2024-03-08T13:42:46;59.97;;;21.53;;
76290;SDS011;65100;46.884;17.410;2024-03-08T13:45:12;54.97;;;23.02;;
76290;SDS011;65100;46.884;17.410;2024-03-08T13:47:38;32.55;;;13.27;;
76290;SDS011;65100;46.884;17.410;2024-03-08T13:50:07;29.90;;;13.50;;
76290;SDS011;65100;46.884;17.410;2024-03-08T13:52:36;33.22;;;14.45;;
76290;SDS011;65100;46.884;17.410;2024-03-08T13:55:03;27.57;;;12.33;;
76290;SDS011;65100;46.884;17.410;2024-03-08T13:57:32;36.17;;;15.38;;
76290;SDS011;65100;46.884;17.410;2024-03-08T13:59:58;55.08;;;24.40;;
76290;SDS011;65100;46.884;17.410;2024-03-08T14:02:24;30.27;;;13.60;;
76290;SDS011;65100;46.884;17.410;2024-03-08T14:04:54;28.65;;;11.77;;
76290;SDS011;65100;46.884;17.410;2024-03-08T14:07:20;27.67;;;12.10;;
76290;SDS011;65100;46.884;17.410;2024-03-08T14:09:45;31.80;;;12.98;;
76290;SDS011;65100;46.884;17.410;2024-03-08T14:12:11;24.80;;;10.90;;
76290;SDS011;65100;46.884;17.410;2024-03-08T14:14:36;26.17;;;11.68;;
76290;SDS011;65100;46.884;17.410;2024-03-08T14:17:02;28.97;;;12.43;;
76290;SDS011;65100;46.884;17.410;2024-03-08T14:19:49;27.52;;;12.20;;
76290;SDS011;65100;46.884;17.410;2024-03-08T14:22:15;27.93;;;11.93;;
76290;SDS011;65100;46.884;17.410;2024-03-08T14:24:41;36.40;;;15.47;;
76290;SDS011;65100;46.884;17.410;2024-03-08T14:27:07;23.58;;;10.48;;
76290;SDS011;65100;46.884;17.410;2024-03-08T14:29:34;28.05;;;11.82;;
76290;SDS011;65100;46.884;17.410;2024-03-08T14:32:00;35.90;;;15.37;;